Time;durP1;ratioP1;P1;durP2;ratioP2;P2;SDS_P1;SDS_P2;PMS_P1;PMS_P2;Temp;Humidity;BMP_temperature;BMP_pressure;BME280_temperature;BME280_humidity;BME280_pressure;Samples;Min_cycle;Max_cycle;Signal;HPM_P1;HPM_P2
2021/07/09 00:02:40;;;;;;;;;;;;;;;19.16;97.17;100177.96;1768513;81;20125;-95
2021/07/09 00:05:07;;;;;;;;;;;;;;;19.17;97.21;100174.27;1768520;81;20443;-93
2021/07/09 00:07:32;;;;;;;;;;;;;;;19.18;97.36;100174.62;1768517;81;20109;-94
2021/07/09 00:09:58;;;;;;;;;;;;;;;19.18;97.26;100171.95;1768581;81;20161;-95
2021/07/09 00:12:24;;;;;;;;;;;;;;;19.19;97.44;100166.09;1768450;81;20124;-95
2021/07/09 00:14:50;;;;;;;;;;;;;;;19.19;97.50;100162.91;1768610;81;20173;-93
2021/07/09 00:17:15;;;;;;;;;;;;;;;19.18;97.39;100162.59;1745303;81;20100;-94
2021/07/09 00:19:42;;;;;;;;;;;;;;;19.19;97.63;100164.75;1742615;82;20100;-94
2021/07/09 00:22:08;;;;;;;;;;;;;;;19.18;97.35;100161.25;1742699;82;20088;-93
2021/07/09 00:24:34;;;;;;;;;;;;;;;19.15;97.33;100137.52;1742774;82;20144;-94
2021/07/09 00:27:03;;;;;;;;;;;;;;;19.13;97.37;100131.50;1742562;82;20147;-93
2021/07/09 00:29:28;;;;;;;;;;;;;;;19.12;97.46;100129.84;1742167;82;20129;-93
2021/07/09 00:31:54;;;;;;;;;;;;;;;19.10;97.43;100129.16;1742557;82;20122;-94
2021/07/09 00:34:20;;;;;;;;;;;;;;;19.10;97.63;100130.50;1743491;81;20397;-95
2021/07/09 00:36:46;;;;;;;;;;;;;;;19.09;97.48;100138.20;1742610;81;20259;-95
2021/07/09 00:39:12;;;;;;;;;;;;;;;19.07;97.45;100137.52;1742859;82;20134;-95
2021/07/09 00:41:38;;;;;;;;;;;;;;;19.05;97.65;100142.70;1742714;82;20095;-95
2021/07/09 00:44:05;;;;;;;;;;;;;;;19.03;97.50;100136.71;1742753;82;20095;-96
2021/07/09 00:46:33;;;;;;;;;;;;;;;19.00;97.68;100128.52;1742827;82;20118;-94
2021/07/09 00:48:59;;;;;;;;;;;;;;;19.00;97.74;100135.72;1742587;82;20111;-94
2021/07/09 00:51:25;;;;;;;;;;;;;;;18.98;97.58;100122.50;1742719;82;20101;-94
2021/07/09 00:53:50;;;;;;;;;;;;;;;18.96;97.53;100115.17;1742555;82;20138;-93
2021/07/09 00:56:16;;;;;;;;;;;;;;;18.92;97.63;100109.80;1742782;82;20126;-95
2021/07/09 00:58:42;;;;;;;;;;;;;;;18.89;97.67;100112.34;1742627;82;20407;-94
2021/07/09 01:01:08;;;;;;;;;;;;;;;18.88;97.82;100107.15;1742742;82;20090;-95
2021/07/09 01:03:34;;;;;;;;;;;;;;;18.87;98.14;100098.30;1742669;82;20163;-95
2021/07/09 01:06:00;;;;;;;;;;;;;;;18.87;98.23;100090.28;1742728;82;20125;-93
2021/07/09 01:08:25;;;;;;;;;;;;;;;18.88;98.19;100101.80;1742585;82;20142;-94
2021/07/09 01:10:51;;;;;;;;;;;;;;;18.88;98.35;100099.96;1742827;82;20159;-95
2021/07/09 01:13:17;;;;;;;;;;;;;;;18.89;98.36;100101.66;1742747;82;20157;-94
2021/07/09 01:15:43;;;;;;;;;;;;;;;18.89;98.50;100095.47;1742879;82;20122;-94
2021/07/09 01:18:09;;;;;;;;;;;;;;;18.88;98.63;100088.44;1742863;82;20409;-95
2021/07/09 01:20:34;;;;;;;;;;;;;;;18.86;98.59;100075.26;1742879;82;20090;-93
2021/07/09 01:23:02;;;;;;;;;;;;;;;18.84;98.81;100071.91;1742811;82;20125;-95
2021/07/09 01:25:28;;;;;;;;;;;;;;;18.85;99.06;100076.75;1742786;82;20118;-93
2021/07/09 01:27:57;;;;;;;;;;;;;;;18.88;99.29;100076.41;1742828;82;20095;-95
2021/07/09 01:30:24;;;;;;;;;;;;;;;18.87;99.37;100070.74;1742270;82;20106;-96
2021/07/09 01:32:51;;;;;;;;;;;;;;;18.89;99.55;100080.77;1742952;82;20118;-93
2021/07/09 01:35:18;;;;;;;;;;;;;;;18.90;99.61;100076.58;1742942;82;20121;-95
2021/07/09 01:38:06;;;;;;;;;;;;;;;18.91;99.75;100069.39;1742721;81;20095;-95
2021/07/09 01:40:33;;;;;;;;;;;;;;;18.94;99.80;100063.70;1742529;82;20451;-93
2021/07/09 01:43:00;;;;;;;;;;;;;;;18.94;99.64;100039.64;1742604;82;20125;-95
2021/07/09 01:45:25;;;;;;;;;;;;;;;18.92;99.53;100034.48;1742800;82;20449;-93
2021/07/09 01:47:52;;;;;;;;;;;;;;;18.92;99.42;100041.64;1742868;82;20106;-94
2021/07/09 01:50:19;;;;;;;;;;;;;;;18.91;99.47;100031.95;1744282;82;20388;-95
2021/07/09 01:52:45;;;;;;;;;;;;;;;18.89;99.36;100024.13;1743092;82;20098;-92
2021/07/09 01:55:12;;;;;;;;;;;;;;;18.89;99.39;100013.94;1742785;82;20103;-94
2021/07/09 01:57:39;;;;;;;;;;;;;;;18.88;99.46;100009.58;1742807;82;20146;-95
2021/07/09 02:00:11;;;;;;;;;;;;;;;18.89;99.64;100004.58;1742810;82;20106;-94
2021/07/09 02:02:40;;;;;;;;;;;;;;;18.89;99.74;100010.76;1742742;82;20397;-95
2021/07/09 02:05:09;;;;;;;;;;;;;;;18.90;99.84;100024.45;1741746;82;20384;-95
2021/07/09 02:07:35;;;;;;;;;;;;;;;18.91;99.97;100013.24;1742861;82;20114;-94
2021/07/09 02:10:02;;;;;;;;;;;;;;;18.93;100.00;100016.59;1742911;82;20146;-94
2021/07/09 02:12:28;;;;;;;;;;;;;;;18.92;99.99;100018.44;1742610;82;20415;-93
2021/07/09 02:14:55;;;;;;;;;;;;;;;18.93;100.00;100017.42;1744642;79;20114;-94
2021/07/09 02:17:23;;;;;;;;;;;;;;;18.94;100.00;100012.90;1756794;79;20106;-94
2021/07/09 02:19:50;;;;;;;;;;;;;;;18.96;100.00;100006.89;1755800;82;20110;-94
2021/07/09 02:22:18;;;;;;;;;;;;;;;18.96;100.00;100006.89;1755535;82;20111;-93
2021/07/09 02:24:46;;;;;;;;;;;;;;;18.97;100.00;99993.84;1755760;82;20110;-94
2021/07/09 02:27:12;;;;;;;;;;;;;;;18.96;100.00;99990.34;1755798;82;20107;-94
2021/07/09 02:29:38;;;;;;;;;;;;;;;18.97;100.00;99985.82;1755725;82;20135;-94
2021/07/09 02:32:07;;;;;;;;;;;;;;;18.98;100.00;99992.31;1755677;82;20134;-94
2021/07/09 02:34:34;;;;;;;;;;;;;;;18.98;100.00;99988.30;1755713;82;20118;-94
2021/07/09 02:37:00;;;;;;;;;;;;;;;18.98;100.00;99986.14;1755676;82;20448;-93
2021/07/09 02:39:26;;;;;;;;;;;;;;;18.97;100.00;99986.65;1755812;82;20107;-93
2021/07/09 02:41:56;;;;;;;;;;;;;;;18.97;100.00;100000.02;1769330;79;20145;-94
2021/07/09 02:44:22;;;;;;;;;;;;;;;18.97;100.00;100013.89;1773169;81;20122;-93
2021/07/09 02:46:48;;;;;;;;;;;;;;;18.96;100.00;100025.61;1773095;81;20150;-96
2021/07/09 02:49:14;;;;;;;;;;;;;;;18.96;100.00;100034.96;1773300;81;20153;-95
2021/07/09 02:51:42;;;;;;;;;;;;;;;18.96;100.00;100041.64;1773271;81;20432;-95
2021/07/09 02:54:07;;;;;;;;;;;;;;;18.97;100.00;100034.77;1773151;81;20134;-95
2021/07/09 02:56:33;;;;;;;;;;;;;;;18.97;100.00;100032.61;1773209;81;20488;-95
2021/07/09 02:58:59;;;;;;;;;;;;;;;18.99;100.00;100033.28;1773235;81;20218;-94
2021/07/09 03:01:25;;;;;;;;;;;;;;;18.99;100.00;100025.27;1773187;81;20145;-95
2021/07/09 03:03:52;;;;;;;;;;;;;;;18.98;100.00;100024.40;1773144;81;20141;-95
2021/07/09 03:06:19;;;;;;;;;;;;;;;18.98;100.00;100030.26;1773128;81;20149;-93
2021/07/09 03:08:45;;;;;;;;;;;;;;;18.99;100.00;100011.89;1764639;81;20132;-94
2021/07/09 03:11:11;;;;;;;;;;;;;;;18.99;100.00;100019.91;1742803;82;20442;-93
2021/07/09 03:13:36;;;;;;;;;;;;;;;18.98;100.00;100020.39;1742571;82;20120;-94
2021/07/09 03:16:02;;;;;;;;;;;;;;;18.98;100.00;100019.56;1742860;82;20116;-94
2021/07/09 03:18:28;;;;;;;;;;;;;;;18.97;100.00;100038.78;1742740;82;20097;-94
2021/07/09 03:20:54;;;;;;;;;;;;;;;18.97;100.00;100052.66;1742890;82;20099;-94
2021/07/09 03:23:21;;;;;;;;;;;;;;;18.96;100.00;100058.52;1742944;82;20123;-94
2021/07/09 03:25:46;;;;;;;;;;;;;;;18.96;100.00;100042.48;1742752;82;20109;-93
2021/07/09 03:28:12;;;;;;;;;;;;;;;18.96;100.00;100031.78;1742726;82;20125;-95
2021/07/09 03:30:39;;;;;;;;;;;;;;;18.95;100.00;100036.81;1742808;82;20529;-96
2021/07/09 03:33:04;;;;;;;;;;;;;;;18.95;100.00;100046.64;1742915;82;20152;-95
2021/07/09 03:35:30;;;;;;;;;;;;;;;18.97;100.00;100059.34;1742848;82;20275;-95
2021/07/09 03:37:56;;;;;;;;;;;;;;;19.00;100.00;100082.23;1713978;82;20386;-96
2021/07/09 03:40:22;;;;;;;;;;;;;;;19.01;100.00;100093.25;1713576;82;20100;-96
2021/07/09 03:42:48;;;;;;;;;;;;;;;18.99;100.00;100156.27;1743457;82;20136;-96
2021/07/09 03:45:13;;;;;;;;;;;;;;;18.97;100.00;100196.53;1736967;82;20152;-96
2021/07/09 03:47:39;;;;;;;;;;;;;;;18.95;100.00;100185.19;1742663;82;20112;-95
2021/07/09 03:50:06;;;;;;;;;;;;;;;18.91;100.00;100182.50;1742769;82;20103;-91
2021/07/09 03:52:32;;;;;;;;;;;;;;;18.89;100.00;100177.02;1742682;82;20107;-95
2021/07/09 03:54:58;;;;;;;;;;;;;;;18.88;100.00;100160.11;1742889;82;20104;-95
2021/07/09 03:57:24;;;;;;;;;;;;;;;18.90;100.00;100162.63;1742631;82;20442;-96
2021/07/09 03:59:49;;;;;;;;;;;;;;;18.89;100.00;100144.94;1742729;82;20112;-96
2021/07/09 04:02:15;;;;;;;;;;;;;;;18.91;100.00;100136.22;1742698;82;20092;-95
2021/07/09 04:04:41;;;;;;;;;;;;;;;18.91;100.00;100155.77;1742680;82;20532;-94
2021/07/09 04:07:07;;;;;;;;;;;;;;;18.93;100.00;100200.55;1745442;79;20160;-92
2021/07/09 04:09:33;;;;;;;;;;;;;;;18.93;100.00;100278.09;1807790;79;20119;-93
2021/07/09 04:11:59;;;;;;;;;;;;;;;18.92;100.00;100354.44;1791707;79;20877;-94
